createdAt,value
2023-02-19T00:00:03.866Z,5.69
2023-02-19T00:02:35.878Z,5.58
2023-02-19T00:05:07.396Z,5.67
2023-02-19T00:07:39.148Z,5.74
2023-02-19T00:10:10.690Z,5.76
2023-02-19T00:12:42.605Z,5.74
2023-02-19T00:15:14.110Z,5.77
2023-02-19T00:17:45.984Z,5.81
2023-02-19T00:20:17.494Z,5.82
2023-02-19T00:22:49.101Z,5.80
2023-02-19T00:25:20.638Z,5.82
2023-02-19T00:27:52.459Z,5.81
2023-02-19T00:30:23.997Z,4.28
2023-02-19T00:32:55.933Z,5.79
2023-02-19T00:35:27.455Z,5.74
2023-02-19T00:37:59.286Z,5.71
2023-02-19T00:40:30.803Z,5.78
2023-02-19T00:43:02.707Z,5.62
2023-02-19T00:45:35.680Z,5.64
2023-02-19T00:48:07.374Z,5.62
2023-02-19T00:50:38.863Z,5.60
2023-02-19T00:53:10.748Z,5.58
2023-02-19T00:55:42.253Z,5.61
2023-02-19T00:58:13.800Z,5.62
2023-02-19T01:00:45.313Z,5.58
2023-02-19T01:03:16.836Z,5.65
2023-02-19T01:05:48.497Z,5.62
2023-02-19T01:08:20.037Z,5.53
2023-02-19T01:10:51.523Z,5.53
2023-02-19T01:13:23.361Z,5.60
2023-02-19T01:15:54.898Z,5.60
2023-02-19T01:18:26.766Z,5.54
2023-02-19T01:20:58.304Z,5.63
2023-02-19T01:23:30.102Z,5.63
2023-02-19T01:26:01.652Z,5.58
2023-02-19T01:28:33.659Z,5.52
2023-02-19T01:31:05.186Z,5.57
2023-02-19T01:33:36.898Z,5.52
2023-02-19T01:36:08.423Z,5.55
2023-02-19T01:38:40.229Z,5.51
2023-02-19T01:41:12.038Z,5.48
2023-02-19T01:43:44.140Z,5.51
2023-02-19T01:46:15.659Z,5.52
2023-02-19T01:48:47.546Z,5.52
2023-02-19T01:51:19.042Z,5.48
2023-02-19T01:53:50.894Z,5.49
2023-02-19T01:56:22.433Z,5.49
2023-02-19T01:58:54.492Z,5.48
2023-02-19T02:01:26.034Z,5.35
2023-02-19T02:03:57.935Z,5.41
2023-02-19T02:06:29.490Z,5.44
2023-02-19T02:09:19.952Z,5.38
2023-02-19T02:11:51.464Z,5.39
2023-02-19T02:14:23.325Z,5.38
2023-02-19T02:16:54.844Z,5.40
2023-02-19T02:19:28.044Z,5.39
2023-02-19T02:21:59.539Z,5.36
2023-02-19T02:24:31.446Z,5.31
2023-02-19T02:27:04.070Z,5.31
2023-02-19T02:29:35.911Z,5.26
2023-02-19T02:32:07.500Z,5.24
2023-02-19T02:34:39.219Z,5.12
2023-02-19T02:37:10.717Z,5.02
2023-02-19T02:39:42.668Z,4.95
2023-02-19T02:42:29.239Z,4.96
2023-02-19T02:45:19.620Z,4.92
2023-02-19T02:47:51.311Z,4.88
2023-02-19T02:50:23.190Z,4.79
2023-02-19T02:53:13.905Z,4.81
2023-02-19T02:55:45.404Z,4.78
2023-02-19T02:58:16.945Z,4.76
2023-02-19T03:01:07.430Z,4.69
2023-02-19T03:03:39.551Z,4.59
2023-02-19T03:06:11.056Z,4.63
2023-02-19T03:08:42.672Z,4.65
2023-02-19T03:11:32.900Z,4.65
2023-02-19T03:14:23.440Z,4.66
2023-02-19T03:17:13.561Z,4.67
2023-02-19T03:19:45.446Z,4.64
2023-02-19T03:22:17.018Z,4.43
2023-02-19T03:25:07.595Z,4.39
2023-02-19T03:27:39.131Z,4.35
2023-02-19T03:30:10.703Z,4.23
2023-02-19T03:32:42.302Z,4.20
2023-02-19T03:35:13.868Z,3.93
2023-02-19T03:37:45.517Z,3.83
2023-02-19T03:40:17.068Z,3.90
2023-02-19T03:42:48.562Z,3.83
2023-02-19T03:45:20.082Z,3.78
2023-02-19T03:47:53.133Z,3.65
2023-02-19T03:50:24.994Z,3.59
2023-02-19T03:52:56.490Z,3.59
2023-02-19T03:55:28.292Z,3.37
2023-02-19T03:57:59.781Z,3.44
2023-02-19T04:00:31.295Z,3.36
2023-02-19T04:03:02.798Z,3.41
2023-02-19T04:05:34.671Z,3.38
2023-02-19T04:08:06.202Z,3.33
2023-02-19T04:13:28.506Z,2.99
2023-02-19T04:16:00.007Z,2.93
2023-02-19T04:18:31.767Z,2.99
2023-02-19T04:21:03.259Z,2.99
2023-02-19T04:23:35.121Z,2.93
2023-02-19T04:26:07.983Z,2.84
2023-02-19T04:28:39.657Z,2.89
2023-02-19T04:31:11.698Z,2.84
2023-02-19T04:33:43.489Z,2.88
2023-02-19T04:36:15.007Z,2.83
2023-02-19T04:38:46.515Z,2.87
2023-02-19T04:41:18.042Z,2.89
2023-02-19T04:43:49.521Z,2.86
2023-02-19T04:46:21.090Z,2.84
2023-02-19T04:48:52.642Z,2.76
2023-02-19T04:51:24.390Z,2.75
2023-02-19T04:53:56.406Z,2.71
2023-02-19T04:56:28.334Z,2.67
2023-02-19T04:59:00.090Z,2.68
2023-02-19T05:01:31.600Z,2.73
2023-02-19T05:04:04.914Z,2.71
2023-02-19T05:06:36.469Z,2.71
2023-02-19T05:09:08.098Z,2.74
2023-02-19T05:11:39.630Z,2.75
2023-02-19T05:14:11.529Z,2.78
2023-02-19T05:16:43.066Z,2.85
2023-02-19T05:19:14.554Z,2.80
2023-02-19T05:21:46.101Z,2.88
2023-02-19T05:24:17.636Z,2.91
2023-02-19T05:26:49.127Z,2.91
2023-02-19T05:29:20.641Z,2.88
2023-02-19T05:31:52.262Z,2.89
2023-02-19T05:34:24.188Z,2.96
2023-02-19T05:36:55.684Z,2.93
2023-02-19T05:39:27.457Z,2.87
2023-02-19T05:41:58.940Z,2.95
2023-02-19T05:44:30.773Z,2.91
2023-02-19T05:47:02.278Z,2.98
2023-02-19T05:49:34.054Z,-0.35
2023-02-19T05:52:05.562Z,2.93
2023-02-19T05:54:37.407Z,2.99
2023-02-19T05:57:08.972Z,2.99
2023-02-19T05:59:40.866Z,3.00
2023-02-19T06:02:12.353Z,2.99
2023-02-19T06:04:44.302Z,2.92
2023-02-19T06:07:15.781Z,2.89
2023-02-19T06:09:47.615Z,2.90
2023-02-19T06:12:19.124Z,2.78
2023-02-19T06:14:50.947Z,2.72
2023-02-19T06:17:22.424Z,2.79
2023-02-19T06:19:54.287Z,2.80
2023-02-19T06:22:25.800Z,2.76
2023-02-19T06:24:57.702Z,2.83
2023-02-19T06:27:29.246Z,2.86
2023-02-19T06:30:01.282Z,2.85
2023-02-19T06:32:32.820Z,2.89
2023-02-19T06:35:04.724Z,2.94
2023-02-19T06:37:36.259Z,2.88
2023-02-19T06:40:08.067Z,2.99
2023-02-19T06:42:39.627Z,2.98
2023-02-19T06:45:11.405Z,2.99
2023-02-19T06:47:42.953Z,2.97
2023-02-19T06:50:14.456Z,2.96
2023-02-19T06:52:45.944Z,3.01
2023-02-19T06:55:17.447Z,3.02
2023-02-19T06:57:48.950Z,3.09
2023-02-19T07:00:20.472Z,3.10
2023-02-19T07:02:56.457Z,3.23
2023-02-19T07:05:28.301Z,3.22
2023-02-19T07:07:59.820Z,3.24
2023-02-19T07:10:31.638Z,3.29
2023-02-19T07:13:03.176Z,3.42
2023-02-19T07:15:35.065Z,3.38
2023-02-19T07:18:10.305Z,3.41
2023-02-19T07:20:42.114Z,3.48
2023-02-19T07:23:13.610Z,3.60
2023-02-19T07:25:45.361Z,3.70
2023-02-19T07:28:16.934Z,3.79
2023-02-19T07:30:48.749Z,3.88
2023-02-19T07:33:20.263Z,3.79
2023-02-19T07:35:52.148Z,3.81
2023-02-19T07:38:23.673Z,3.71
2023-02-19T07:40:55.353Z,3.77
2023-02-19T07:43:26.883Z,3.80
2023-02-19T07:45:58.707Z,3.85
2023-02-19T07:48:30.227Z,3.87
2023-02-19T07:51:02.065Z,3.84
2023-02-19T07:53:33.557Z,3.90
2023-02-19T07:56:05.376Z,3.90
2023-02-19T07:58:36.875Z,3.93
2023-02-19T08:01:09.022Z,4.03
2023-02-19T08:03:40.731Z,4.10
2023-02-19T08:06:12.678Z,4.19
2023-02-19T08:08:44.275Z,4.48
2023-02-19T08:11:48.829Z,4.48
2023-02-19T08:14:20.343Z,4.55
2023-02-19T08:16:52.151Z,4.67
2023-02-19T08:19:23.846Z,4.55
2023-02-19T08:21:55.708Z,4.67
2023-02-19T08:24:27.240Z,4.84
2023-02-19T08:26:59.074Z,5.05
2023-02-19T08:29:30.581Z,5.01
2023-02-19T08:32:02.523Z,4.99
2023-02-19T08:34:34.066Z,4.84
2023-02-19T08:37:05.781Z,4.88
2023-02-19T08:39:37.292Z,4.90
2023-02-19T08:42:09.093Z,5.38
2023-02-19T08:44:40.590Z,5.35
2023-02-19T08:47:12.502Z,5.49
2023-02-19T08:49:43.987Z,5.68
2023-02-19T08:52:15.535Z,5.82
2023-02-19T08:54:47.049Z,5.44
2023-02-19T08:57:19.357Z,5.77
2023-02-19T08:59:50.858Z,5.33
2023-02-19T09:02:22.632Z,5.44
2023-02-19T09:04:54.179Z,5.72
2023-02-19T09:07:25.978Z,5.54
2023-02-19T09:09:57.546Z,6.24
2023-02-19T09:12:29.393Z,6.01
2023-02-19T09:15:01.214Z,6.45
2023-02-19T09:17:32.713Z,6.14
2023-02-19T09:20:04.588Z,5.94
2023-02-19T09:22:36.119Z,6.11
2023-02-19T09:25:08.019Z,5.95
2023-02-19T09:27:39.533Z,6.24
2023-02-19T09:30:11.133Z,6.01
2023-02-19T09:32:42.658Z,5.74
2023-02-19T09:35:14.225Z,5.81
2023-02-19T09:37:45.729Z,6.10
2023-02-19T09:40:21.512Z,6.18
2023-02-19T09:42:53.138Z,5.98
2023-02-19T09:45:24.721Z,6.39
2023-02-19T09:47:56.223Z,7.04
2023-02-19T09:50:27.935Z,6.50
2023-02-19T09:52:59.617Z,6.35
2023-02-19T09:55:31.431Z,6.94
2023-02-19T09:58:02.931Z,7.06
2023-02-19T10:00:34.833Z,7.17
2023-02-19T10:03:06.431Z,7.87
2023-02-19T10:05:38.125Z,6.99
2023-02-19T10:08:09.611Z,7.33
2023-02-19T10:10:41.776Z,7.14
2023-02-19T10:13:13.297Z,7.87
2023-02-19T10:15:44.966Z,7.00
2023-02-19T10:18:16.488Z,7.56
2023-02-19T10:20:48.258Z,7.95
2023-02-19T10:23:19.760Z,7.59
2023-02-19T10:25:51.629Z,8.08
2023-02-19T10:28:23.238Z,8.37
2023-02-19T10:30:55.047Z,8.35
2023-02-19T10:33:26.674Z,8.24
2023-02-19T10:35:58.840Z,8.11
2023-02-19T10:38:30.390Z,8.20
2023-02-19T10:41:02.308Z,7.73
2023-02-19T10:43:34.003Z,7.27
2023-02-19T10:46:06.038Z,7.73
2023-02-19T10:48:37.657Z,8.11
2023-02-19T10:51:09.955Z,8.14
2023-02-19T10:53:41.674Z,8.23
2023-02-19T10:56:13.194Z,8.21
2023-02-19T10:58:45.004Z,8.43
2023-02-19T11:01:16.594Z,8.20
2023-02-19T11:03:48.137Z,7.89
2023-02-19T11:06:20.599Z,8.11
2023-02-19T11:08:52.184Z,7.72
2023-02-19T11:11:24.128Z,8.67
2023-02-19T11:13:55.701Z,9.09
2023-02-19T11:16:27.703Z,8.98
2023-02-19T11:18:59.295Z,8.85
2023-02-19T11:21:33.755Z,8.43
2023-02-19T11:24:05.252Z,9.06
2023-02-19T11:26:38.455Z,9.30
2023-02-19T11:29:09.980Z,9.17
2023-02-19T11:31:41.657Z,9.05
2023-02-19T11:34:13.220Z,9.68
2023-02-19T11:36:45.112Z,9.71
2023-02-19T11:39:16.641Z,9.08
2023-02-19T11:41:48.426Z,9.45
2023-02-19T11:44:19.934Z,8.72
2023-02-19T11:46:51.797Z,7.72
2023-02-19T11:49:23.317Z,7.32
2023-02-19T11:51:55.147Z,7.20
2023-02-19T11:54:26.648Z,7.24
2023-02-19T11:56:58.521Z,7.08
2023-02-19T11:59:30.039Z,7.42
2023-02-19T12:02:01.806Z,7.46
2023-02-19T12:04:33.342Z,7.62
2023-02-19T12:07:05.164Z,8.30
2023-02-19T12:09:36.662Z,8.41
2023-02-19T12:12:08.897Z,8.99
2023-02-19T12:14:40.418Z,9.49
2023-02-19T12:17:12.258Z,9.46
2023-02-19T12:19:43.799Z,9.52
2023-02-19T12:22:15.356Z,9.51
2023-02-19T12:24:46.949Z,8.85
2023-02-19T12:27:19.956Z,8.24
2023-02-19T12:29:51.500Z,7.48
2023-02-19T12:32:23.301Z,7.97
2023-02-19T12:34:54.835Z,7.84
2023-02-19T12:37:26.680Z,8.46
2023-02-19T12:39:58.227Z,8.56
2023-02-19T12:42:30.015Z,9.18
2023-02-19T12:45:01.519Z,9.56
2023-02-19T12:47:33.475Z,9.34
2023-02-19T12:50:04.975Z,9.88
2023-02-19T12:52:37.090Z,9.62
2023-02-19T12:55:08.586Z,9.99
2023-02-19T12:57:40.362Z,9.95
2023-02-19T13:00:11.867Z,10.38
2023-02-19T13:02:43.721Z,9.96
2023-02-19T13:05:15.244Z,9.99
2023-02-19T13:07:46.983Z,9.74
2023-02-19T13:10:18.519Z,9.78
2023-02-19T13:12:50.400Z,9.19
2023-02-19T13:15:21.964Z,8.72
2023-02-19T13:17:53.789Z,9.13
2023-02-19T13:20:25.671Z,8.57
2023-02-19T13:23:15.837Z,8.41
2023-02-19T13:25:47.768Z,8.46
2023-02-19T13:28:19.277Z,8.02
2023-02-19T13:30:51.338Z,7.68
2023-02-19T13:33:22.972Z,7.57
2023-02-19T13:35:54.852Z,7.37
2023-02-19T13:38:26.344Z,7.53
2023-02-19T13:40:58.220Z,7.93
2023-02-19T13:43:29.712Z,8.50
2023-02-19T13:46:01.572Z,8.41
2023-02-19T13:48:33.090Z,8.61
2023-02-19T13:51:04.831Z,8.75
2023-02-19T13:53:36.337Z,8.91
2023-02-19T13:56:08.165Z,9.23
2023-02-19T13:58:39.865Z,9.19
2023-02-19T14:01:12.233Z,9.53
2023-02-19T14:03:43.974Z,9.32
2023-02-19T14:06:15.557Z,9.43
2023-02-19T14:08:47.316Z,10.02
2023-02-19T14:11:18.884Z,9.95
2023-02-19T14:13:54.502Z,10.41
2023-02-19T14:16:26.311Z,9.99
2023-02-19T14:18:57.831Z,9.96
2023-02-19T14:21:29.583Z,10.51
2023-02-19T14:24:01.107Z,9.87
2023-02-19T14:26:32.950Z,10.20
2023-02-19T14:29:04.468Z,9.80
2023-02-19T14:31:36.466Z,9.79
2023-02-19T14:34:08.336Z,9.17
2023-02-19T14:36:40.856Z,8.83
2023-02-19T14:39:12.391Z,8.21
2023-02-19T14:41:44.275Z,7.89
2023-02-19T14:44:15.778Z,7.46
2023-02-19T14:46:49.238Z,7.39
2023-02-19T14:49:20.731Z,7.15
2023-02-19T14:51:52.624Z,7.17
2023-02-19T14:54:24.104Z,6.98
2023-02-19T14:56:56.014Z,6.86
2023-02-19T14:59:27.599Z,7.11
2023-02-19T15:01:59.506Z,7.03
2023-02-19T15:04:31.467Z,6.98
2023-02-19T15:07:03.364Z,7.03
2023-02-19T15:09:34.855Z,7.29
2023-02-19T15:12:06.681Z,7.50
2023-02-19T15:14:38.216Z,7.88
2023-02-19T15:17:10.131Z,7.86
2023-02-19T15:19:41.617Z,7.38
2023-02-19T15:22:13.322Z,6.90
2023-02-19T15:24:48.244Z,6.96
2023-02-19T15:27:20.174Z,7.30
2023-02-19T15:29:53.448Z,7.65
2023-02-19T15:32:26.977Z,7.46
2023-02-19T15:34:58.499Z,7.38
2023-02-19T15:37:30.308Z,7.39
2023-02-19T15:40:01.852Z,7.03
2023-02-19T15:42:33.768Z,6.83
2023-02-19T15:45:05.350Z,6.66
2023-02-19T15:47:37.256Z,6.43
2023-02-19T15:50:09.069Z,5.78
2023-02-19T15:52:40.746Z,6.25
2023-02-19T15:55:12.249Z,6.12
2023-02-19T15:57:44.134Z,6.08
2023-02-19T16:00:15.738Z,5.97
2023-02-19T16:02:47.759Z,5.93
2023-02-19T16:05:19.349Z,5.87
2023-02-19T16:07:51.061Z,5.79
2023-02-19T16:10:22.597Z,5.70
2023-02-19T16:12:54.410Z,5.65
2023-02-19T16:15:25.945Z,5.61
2023-02-19T16:17:57.880Z,5.57
2023-02-19T16:20:29.441Z,5.58
2023-02-19T16:23:01.062Z,5.49
2023-02-19T16:25:32.666Z,5.45
2023-02-19T16:28:04.531Z,5.38
2023-02-19T16:30:36.263Z,5.30
2023-02-19T16:33:19.602Z,5.24
2023-02-19T16:35:52.482Z,5.18
2023-02-19T16:38:24.421Z,5.13
2023-02-19T16:40:56.004Z,5.08
2023-02-19T16:43:27.855Z,4.48
2023-02-19T16:45:59.446Z,5.00
2023-02-19T16:48:31.007Z,4.95
2023-02-19T16:51:02.963Z,4.87
2023-02-19T16:53:34.801Z,4.80
2023-02-19T16:56:06.378Z,4.76
2023-02-19T16:58:39.927Z,4.72
2023-02-19T17:01:11.988Z,4.65
2023-02-19T17:03:44.188Z,4.57
2023-02-19T17:06:15.786Z,4.54
2023-02-19T17:08:47.604Z,4.50
2023-02-19T17:11:19.141Z,4.46
2023-02-19T17:13:50.938Z,4.39
2023-02-19T17:16:22.703Z,4.32
2023-02-19T17:18:54.845Z,4.31
2023-02-19T17:21:26.716Z,4.28
2023-02-19T17:23:58.189Z,4.23
2023-02-19T17:26:29.848Z,4.17
2023-02-19T17:29:01.328Z,4.10
2023-02-19T17:31:34.178Z,4.08
2023-02-19T17:34:05.854Z,4.01
2023-02-19T17:36:38.294Z,3.90
2023-02-19T17:39:14.996Z,3.89
2023-02-19T17:41:46.483Z,3.90
2023-02-19T17:44:18.018Z,3.90
2023-02-19T17:46:49.745Z,3.87
2023-02-19T17:49:21.350Z,3.84
2023-02-19T17:51:53.238Z,3.83
2023-02-19T17:54:24.741Z,3.81
2023-02-19T17:56:59.595Z,3.81
2023-02-19T17:59:31.138Z,3.75
2023-02-19T18:02:03.771Z,3.73
2023-02-19T18:04:36.625Z,3.73
2023-02-19T18:07:08.884Z,3.75
2023-02-19T18:09:41.129Z,3.78
2023-02-19T18:12:12.814Z,3.78
2023-02-19T18:14:44.330Z,3.78
2023-02-19T18:17:15.843Z,3.74
2023-02-19T18:19:47.487Z,3.72
2023-02-19T18:22:18.994Z,3.72
2023-02-19T18:24:50.505Z,3.71
2023-02-19T18:27:23.814Z,3.63
2023-02-19T18:29:55.469Z,3.58
2023-02-19T18:32:27.438Z,3.58
2023-02-19T18:35:00.040Z,3.53
2023-02-19T18:37:33.411Z,3.53
2023-02-19T18:40:05.025Z,3.48
2023-02-19T18:42:36.534Z,3.52
2023-02-19T18:45:10.518Z,3.55
2023-02-19T18:47:42.447Z,3.51
2023-02-19T18:50:13.995Z,3.47
2023-02-19T18:52:45.580Z,3.42
2023-02-19T18:55:17.219Z,3.38
2023-02-19T18:57:49.059Z,3.31
2023-02-19T19:00:20.693Z,3.29
2023-02-19T19:02:52.550Z,3.29
2023-02-19T19:05:24.069Z,3.26
2023-02-19T19:07:55.671Z,3.20
2023-02-19T19:10:27.309Z,3.16
2023-02-19T19:12:58.976Z,3.16
2023-02-19T19:15:30.582Z,3.13
2023-02-19T19:18:02.823Z,3.11
2023-02-19T19:20:34.397Z,3.08
2023-02-19T19:23:06.369Z,3.05
2023-02-19T19:25:37.957Z,3.02
2023-02-19T19:28:10.005Z,2.99
2023-02-19T19:30:41.711Z,3.00
2023-02-19T19:33:14.285Z,2.97
2023-02-19T19:35:46.032Z,2.94
2023-02-19T19:38:17.601Z,2.86
2023-02-19T19:40:49.157Z,2.80
2023-02-19T19:43:20.795Z,2.86
2023-02-19T19:45:52.384Z,2.89
2023-02-19T19:48:24.298Z,2.91
2023-02-19T19:50:57.072Z,2.89
2023-02-19T19:53:28.979Z,2.87
2023-02-19T19:56:00.549Z,2.86
2023-02-19T19:58:33.440Z,2.78
2023-02-19T20:01:06.048Z,2.76
2023-02-19T20:03:38.015Z,2.68
2023-02-19T20:06:09.521Z,2.65
2023-02-19T20:08:41.300Z,2.58
2023-02-19T20:11:13.011Z,2.42
2023-02-19T20:13:44.809Z,2.36
2023-02-19T20:16:16.396Z,2.28
2023-02-19T20:18:47.983Z,2.23
2023-02-19T20:21:19.491Z,2.19
2023-02-19T20:23:51.431Z,2.18
2023-02-19T20:26:23.009Z,2.21
2023-02-19T20:28:54.806Z,2.18
2023-02-19T20:31:26.771Z,2.17
2023-02-19T20:33:58.688Z,2.13
2023-02-19T20:36:30.250Z,2.15
2023-02-19T20:39:02.046Z,2.12
2023-02-19T20:41:33.531Z,2.09
2023-02-19T20:44:05.366Z,2.06
2023-02-19T20:46:36.977Z,2.04
2023-02-19T20:49:08.870Z,2.03
2023-02-19T20:51:40.352Z,2.03
2023-02-19T20:54:12.194Z,2.02
2023-02-19T20:56:43.682Z,1.98
2023-02-19T20:59:15.226Z,1.96
2023-02-19T21:01:46.762Z,1.93
2023-02-19T21:04:19.022Z,1.90
2023-02-19T21:06:52.313Z,1.87
2023-02-19T21:09:24.160Z,1.84
2023-02-19T21:11:55.772Z,1.79
2023-02-19T21:14:27.497Z,1.77
2023-02-19T21:16:58.964Z,1.76
2023-02-19T21:19:30.536Z,1.75
2023-02-19T21:22:02.053Z,1.73
2023-02-19T21:24:33.818Z,1.70
2023-02-19T21:27:05.347Z,1.66
2023-02-19T21:29:37.369Z,1.65
2023-02-19T21:32:09.047Z,1.67
2023-02-19T21:34:40.880Z,1.69
2023-02-19T21:37:12.380Z,1.71
2023-02-19T21:39:44.191Z,1.76
2023-02-19T21:42:15.749Z,1.77
2023-02-19T21:44:47.946Z,1.79
2023-02-19T21:47:19.467Z,1.82
2023-02-19T21:49:51.166Z,1.84
2023-02-19T21:52:23.408Z,1.86
2023-02-19T21:54:54.980Z,1.90
2023-02-19T21:57:26.536Z,1.93
2023-02-19T21:59:58.470Z,1.98
2023-02-19T22:02:30.063Z,2.03
2023-02-19T22:05:02.999Z,2.06
2023-02-19T22:07:34.527Z,2.09
2023-02-19T22:10:06.430Z,2.11
2023-02-19T22:12:37.972Z,2.12
2023-02-19T22:15:09.849Z,2.12
2023-02-19T22:17:41.394Z,2.10
2023-02-19T22:20:12.940Z,2.06
2023-02-19T22:22:44.444Z,2.02
2023-02-19T22:25:15.964Z,1.96
2023-02-19T22:27:48.945Z,1.87
2023-02-19T22:30:20.557Z,1.85
2023-02-19T22:32:52.506Z,1.79
2023-02-19T22:35:24.043Z,1.75
2023-02-19T22:37:55.865Z,1.72
2023-02-19T22:40:27.374Z,1.70
2023-02-19T22:42:59.165Z,1.68
2023-02-19T22:45:30.710Z,1.69
2023-02-19T22:48:02.514Z,1.67
2023-02-19T22:50:34.021Z,1.61
2023-02-19T22:53:05.800Z,1.60
2023-02-19T22:55:37.313Z,1.53
2023-02-19T22:58:08.874Z,1.48
2023-02-19T23:00:40.377Z,1.45
2023-02-19T23:03:12.040Z,1.42
2023-02-19T23:05:43.600Z,1.39
2023-02-19T23:08:15.141Z,1.36
2023-02-19T23:10:46.631Z,1.36
2023-02-19T23:13:18.166Z,1.36
2023-02-19T23:15:49.653Z,1.39
2023-02-19T23:18:21.153Z,1.38
2023-02-19T23:20:52.618Z,1.38
2023-02-19T23:23:24.129Z,1.37
2023-02-19T23:25:55.603Z,1.35
2023-02-19T23:28:27.205Z,1.37
2023-02-19T23:30:58.808Z,1.38
2023-02-19T23:33:30.397Z,1.37
2023-02-19T23:36:01.905Z,1.37
2023-02-19T23:38:33.787Z,1.38
2023-02-19T23:41:05.282Z,1.35
2023-02-19T23:43:37.092Z,1.34
2023-02-19T23:46:08.647Z,1.27
2023-02-19T23:48:40.627Z,1.17
2023-02-19T23:51:12.148Z,1.14
2023-02-19T23:53:43.962Z,1.18
2023-02-19T23:56:15.500Z,1.18
2023-02-19T23:58:47.099Z,1.13
